sensor_id;sensor_type;location;lat;lon;timestamp;pressure;altitude;pressure_sealevel;temperature;humidity
61484;BME280;47349;55.640;37.692;2023-04-07T00:02:21;100120.16;;;4.62;52.68
61484;BME280;47349;55.640;37.692;2023-04-07T00:04:55;100092.44;;;4.55;53.04
61484;BME280;47349;55.640;37.692;2023-04-07T00:07:26;100095.63;;;4.38;52.67
61484;BME280;47349;55.640;37.692;2023-04-07T00:09:54;100084.63;;;4.43;53.02
61484;BME280;47349;55.640;37.692;2023-04-07T00:12:21;100098.50;;;4.46;53.38
61484;BME280;47349;55.640;37.692;2023-04-07T00:14:49;100090.91;;;4.42;53.59
61484;BME280;47349;55.640;37.692;2023-04-07T00:17:16;100107.22;;;4.37;53.59
61484;BME280;47349;55.640;37.692;2023-04-07T00:19:44;100088.56;;;4.27;53.46
61484;BME280;47349;55.640;37.692;2023-04-07T00:22:11;100100.94;;;4.38;53.00
61484;BME280;47349;55.640;37.692;2023-04-07T00:24:38;100099.50;;;4.34;53.43
61484;BME280;47349;55.640;37.692;2023-04-07T00:27:05;100102.88;;;4.36;53.32
61484;BME280;47349;55.640;37.692;2023-04-07T00:29:32;100094.84;;;4.26;53.86
61484;BME280;47349;55.640;37.692;2023-04-07T00:32:00;100107.59;;;4.32;53.07
61484;BME280;47349;55.640;37.692;2023-04-07T00:34:27;100114.03;;;4.19;53.42
61484;BME280;47349;55.640;37.692;2023-04-07T00:36:55;100107.25;;;4.26;53.45
61484;BME280;47349;55.640;37.692;2023-04-07T00:39:22;100089.06;;;4.10;53.54
61484;BME280;47349;55.640;37.692;2023-04-07T00:41:49;100114.75;;;4.21;53.83
61484;BME280;47349;55.640;37.692;2023-04-07T00:44:18;100083.66;;;4.00;53.71
61484;BME280;47349;55.640;37.692;2023-04-07T00:46:46;100106.56;;;4.12;54.53
61484;BME280;47349;55.640;37.692;2023-04-07T00:49:15;100110.19;;;4.11;54.38
61484;BME280;47349;55.640;37.692;2023-04-07T00:51:45;100096.69;;;4.03;54.54
61484;BME280;47349;55.640;37.692;2023-04-07T00:54:12;100097.03;;;4.10;54.27
61484;BME280;47349;55.640;37.692;2023-04-07T00:56:54;100081.03;;;4.00;54.25
61484;BME280;47349;55.640;37.692;2023-04-07T00:59:24;100102.84;;;4.04;54.72
61484;BME280;47349;55.640;37.692;2023-04-07T01:04:28;100110.78;;;4.04;55.02
61484;BME280;47349;55.640;37.692;2023-04-07T01:07:22;100106.84;;;3.98;54.37
61484;BME280;47349;55.640;37.692;2023-04-07T01:10:04;100107.31;;;3.81;55.97
61484;BME280;47349;55.640;37.692;2023-04-07T01:13:21;100108.06;;;3.83;55.69
61484;BME280;47349;55.640;37.692;2023-04-07T01:15:57;100118.66;;;3.72;55.67
61484;BME280;47349;55.640;37.692;2023-04-07T01:18:35;100109.66;;;3.63;56.00
61484;BME280;47349;55.640;37.692;2023-04-07T01:21:14;100117.81;;;3.60;55.66
61484;BME280;47349;55.640;37.692;2023-04-07T01:26:30;100123.84;;;3.62;56.39
61484;BME280;47349;55.640;37.692;2023-04-07T01:29:08;100113.84;;;3.54;56.05
61484;BME280;47349;55.640;37.692;2023-04-07T01:31:40;100123.84;;;3.51;57.03
61484;BME280;47349;55.640;37.692;2023-04-07T01:34:24;100117.97;;;3.58;56.37
61484;BME280;47349;55.640;37.692;2023-04-07T01:36:54;100115.28;;;3.47;56.38
61484;BME280;47349;55.640;37.692;2023-04-07T01:39:37;100108.94;;;3.39;56.63
61484;BME280;47349;55.640;37.692;2023-04-07T01:42:08;100096.03;;;3.34;56.90
61484;BME280;47349;55.640;37.692;2023-04-07T01:44:40;100117.44;;;3.31;57.11
61484;BME280;47349;55.640;37.692;2023-04-07T01:47:10;100110.44;;;3.19;57.71
61484;BME280;47349;55.640;37.692;2023-04-07T01:49:47;100113.47;;;3.25;58.16
61484;BME280;47349;55.640;37.692;2023-04-07T01:52:31;100086.34;;;2.99;57.92
61484;BME280;47349;55.640;37.692;2023-04-07T01:55:00;100085.13;;;3.03;57.35
61484;BME280;47349;55.640;37.692;2023-04-07T01:57:31;100119.00;;;3.22;57.52
61484;BME280;47349;55.640;37.692;2023-04-07T02:00:10;100119.38;;;3.29;57.76
61484;BME280;47349;55.640;37.692;2023-04-07T02:02:51;100094.41;;;3.09;57.94
61484;BME280;47349;55.640;37.692;2023-04-07T02:05:35;100117.53;;;3.07;58.03
61484;BME280;47349;55.640;37.692;2023-04-07T02:08:10;100108.81;;;2.94;58.86
61484;BME280;47349;55.640;37.692;2023-04-07T02:10:51;100105.06;;;2.85;59.04
61484;BME280;47349;55.640;37.692;2023-04-07T02:13:34;100098.00;;;2.86;59.36
61484;BME280;47349;55.640;37.692;2023-04-07T02:16:29;100111.09;;;2.87;58.99
61484;BME280;47349;55.640;37.692;2023-04-07T02:19:00;100103.72;;;2.79;59.40
61484;BME280;47349;55.640;37.692;2023-04-07T02:21:36;100086.34;;;2.53;59.74
61484;BME280;47349;55.640;37.692;2023-04-07T02:24:20;100130.59;;;2.86;59.57
61484;BME280;47349;55.640;37.692;2023-04-07T02:26:52;100106.50;;;2.78;59.89
61484;BME280;47349;55.640;37.692;2023-04-07T02:29:34;100112.03;;;2.75;59.89
61484;BME280;47349;55.640;37.692;2023-04-07T02:32:32;100126.00;;;2.77;60.13
61484;BME280;47349;55.640;37.692;2023-04-07T02:35:15;100121.53;;;2.77;59.98
61484;BME280;47349;55.640;37.692;2023-04-07T02:38:05;100115.97;;;2.69;59.93
61484;BME280;47349;55.640;37.692;2023-04-07T02:40:53;100116.94;;;2.68;60.04
61484;BME280;47349;55.640;37.692;2023-04-07T02:43:42;100125.22;;;2.64;60.47
61484;BME280;47349;55.640;37.692;2023-04-07T02:46:31;100121.09;;;2.60;60.91
61484;BME280;47349;55.640;37.692;2023-04-07T02:49:22;100120.06;;;2.62;60.71
61484;BME280;47349;55.640;37.692;2023-04-07T02:52:08;100122.69;;;2.62;60.83
61484;BME280;47349;55.640;37.692;2023-04-07T02:54:57;100131.22;;;2.66;60.40
61484;BME280;47349;55.640;37.692;2023-04-07T02:57:45;100123.75;;;2.60;60.75
61484;BME280;47349;55.640;37.692;2023-04-07T03:01:02;100132.44;;;2.62;60.93
61484;BME280;47349;55.640;37.692;2023-04-07T03:03:48;100129.06;;;2.60;61.17
61484;BME280;47349;55.640;37.692;2023-04-07T03:06:35;100136.47;;;2.54;60.81
61484;BME280;47349;55.640;37.692;2023-04-07T03:09:18;100132.03;;;2.55;60.91
61484;BME280;47349;55.640;37.692;2023-04-07T03:12:11;100131.78;;;2.47;61.71
61484;BME280;47349;55.640;37.692;2023-04-07T03:15:01;100152.53;;;2.40;61.75
61484;BME280;47349;55.640;37.692;2023-04-07T03:18:28;100136.38;;;2.32;61.86
61484;BME280;47349;55.640;37.692;2023-04-07T03:21:21;100137.22;;;2.33;61.96
61484;BME280;47349;55.640;37.692;2023-04-07T03:24:14;100137.75;;;2.38;61.79
61484;BME280;47349;55.640;37.692;2023-04-07T03:27:11;100147.41;;;2.26;62.66
61484;BME280;47349;55.640;37.692;2023-04-07T03:30:01;100121.72;;;2.15;62.02
61484;BME280;47349;55.640;37.692;2023-04-07T03:32:52;100126.25;;;2.26;62.19
61484;BME280;47349;55.640;37.692;2023-04-07T03:35:47;100151.00;;;2.25;62.88
61484;BME280;47349;55.640;37.692;2023-04-07T03:38:46;100140.22;;;2.28;62.78
61484;BME280;47349;55.640;37.692;2023-04-07T03:41:40;100155.69;;;2.45;62.09
61484;BME280;47349;55.640;37.692;2023-04-07T03:44:52;100164.88;;;2.52;61.79
61484;BME280;47349;55.640;37.692;2023-04-07T03:48:26;100159.75;;;2.62;61.55
61484;BME280;47349;55.640;37.692;2023-04-07T03:51:51;100156.47;;;2.58;61.14
61484;BME280;47349;55.640;37.692;2023-04-07T03:54:49;100109.25;;;2.41;60.42
61484;BME280;47349;55.640;37.692;2023-04-07T03:58:03;100161.81;;;2.70;60.75
61484;BME280;47349;55.640;37.692;2023-04-07T04:01:05;100162.91;;;2.67;61.20
61484;BME280;47349;55.640;37.692;2023-04-07T04:04:06;100149.75;;;2.66;61.03
61484;BME280;47349;55.640;37.692;2023-04-07T04:06:56;100166.03;;;2.72;60.68
61484;BME280;47349;55.640;37.692;2023-04-07T04:10:02;100169.19;;;2.77;60.26
61484;BME280;47349;55.640;37.692;2023-04-07T04:12:51;100158.78;;;2.63;61.22
61484;BME280;47349;55.640;37.692;2023-04-07T04:15:59;100165.25;;;2.83;60.34
61484;BME280;47349;55.640;37.692;2023-04-07T04:19:14;100168.03;;;2.93;60.28
61484;BME280;47349;55.640;37.692;2023-04-07T04:22:24;100171.31;;;2.96;60.44
61484;BME280;47349;55.640;37.692;2023-04-07T04:29:23;100180.53;;;3.15;59.27
61484;BME280;47349;55.640;37.692;2023-04-07T04:33:14;100181.00;;;3.20;59.29
61484;BME280;47349;55.640;37.692;2023-04-07T04:36:44;100147.00;;;3.02;58.20
61484;BME280;47349;55.640;37.692;2023-04-07T04:40:26;100181.53;;;3.36;58.45
61484;BME280;47349;55.640;37.692;2023-04-07T04:43:27;100185.75;;;3.39;57.94
61484;BME280;47349;55.640;37.692;2023-04-07T04:46:59;100176.44;;;3.33;57.97
61484;BME280;47349;55.640;37.692;2023-04-07T04:50:30;100181.41;;;3.38;58.32
61484;BME280;47349;55.640;37.692;2023-04-07T04:54:21;100180.56;;;3.37;57.48
61484;BME280;47349;55.640;37.692;2023-04-07T04:58:10;100190.94;;;3.63;56.86
61484;BME280;47349;55.640;37.692;2023-04-07T05:01:21;100193.72;;;3.61;57.49
61484;BME280;47349;55.640;37.692;2023-04-07T05:04:01;100193.00;;;3.70;57.13
61484;BME280;47349;55.640;37.692;2023-04-07T05:07:08;100199.53;;;3.89;57.13
61484;BME280;47349;55.640;37.692;2023-04-07T05:09:53;100197.50;;;3.92;56.79
61484;BME280;47349;55.640;37.692;2023-04-07T05:12:50;100193.03;;;4.04;56.29
61484;BME280;47349;55.640;37.692;2023-04-07T05:15:57;100205.44;;;4.03;55.92
61484;BME280;47349;55.640;37.692;2023-04-07T05:18:44;100190.84;;;3.98;56.08
61484;BME280;47349;55.640;37.692;2023-04-07T05:21:27;100191.44;;;4.12;56.24
61484;BME280;47349;55.640;37.692;2023-04-07T05:24:11;100193.25;;;4.01;55.54
61484;BME280;47349;55.640;37.692;2023-04-07T05:27:00;100201.47;;;3.98;55.98
61484;BME280;47349;55.640;37.692;2023-04-07T05:29:36;100201.81;;;3.93;55.80
61484;BME280;47349;55.640;37.692;2023-04-07T05:32:34;100202.06;;;4.01;55.82
61484;BME280;47349;55.640;37.692;2023-04-07T05:35:51;100206.75;;;4.09;56.07
61484;BME280;47349;55.640;37.692;2023-04-07T05:38:37;100207.09;;;4.16;55.61
61484;BME280;47349;55.640;37.692;2023-04-07T05:41:34;100207.38;;;4.12;56.19
61484;BME280;47349;55.640;37.692;2023-04-07T05:44:12;100203.13;;;4.32;56.47
61484;BME280;47349;55.640;37.692;2023-04-07T05:47:27;100206.13;;;4.50;56.41
61484;BME280;47349;55.640;37.692;2023-04-07T05:50:11;100214.19;;;4.60;56.09
61484;BME280;47349;55.640;37.692;2023-04-07T05:52:46;100205.19;;;4.72;55.53
61484;BME280;47349;55.640;37.692;2023-04-07T05:55:28;100217.28;;;4.65;55.10
61484;BME280;47349;55.640;37.692;2023-04-07T05:58:24;100212.56;;;4.69;54.95
61484;BME280;47349;55.640;37.692;2023-04-07T06:01:15;100210.25;;;4.75;55.42
61484;BME280;47349;55.640;37.692;2023-04-07T06:04:01;100200.31;;;4.88;54.82
61484;BME280;47349;55.640;37.692;2023-04-07T06:06:48;100208.91;;;5.13;55.24
61484;BME280;47349;55.640;37.692;2023-04-07T06:09:38;100193.81;;;5.13;55.04
61484;BME280;47349;55.640;37.692;2023-04-07T06:12:24;100216.66;;;5.37;54.41
61484;BME280;47349;55.640;37.692;2023-04-07T06:15:13;100213.47;;;5.43;54.08
61484;BME280;47349;55.640;37.692;2023-04-07T06:17:55;100201.59;;;5.47;53.86
61484;BME280;47349;55.640;37.692;2023-04-07T06:20:39;100208.06;;;5.54;53.70
61484;BME280;47349;55.640;37.692;2023-04-07T06:23:18;100217.09;;;5.63;53.26
61484;BME280;47349;55.640;37.692;2023-04-07T06:26:04;100211.50;;;5.66;53.42
61484;BME280;47349;55.640;37.692;2023-04-07T06:28:51;100224.34;;;5.82;53.23
61484;BME280;47349;55.640;37.692;2023-04-07T06:31:27;100226.78;;;5.95;53.17
61484;BME280;47349;55.640;37.692;2023-04-07T06:34:35;100218.84;;;6.04;52.65
61484;BME280;47349;55.640;37.692;2023-04-07T06:37:28;100230.81;;;6.10;52.71
61484;BME280;47349;55.640;37.692;2023-04-07T06:40:17;100204.16;;;5.79;51.13
61484;BME280;47349;55.640;37.692;2023-04-07T06:42:47;100228.66;;;5.83;51.68
61484;BME280;47349;55.640;37.692;2023-04-07T06:45:36;100220.53;;;5.84;51.76
61484;BME280;47349;55.640;37.692;2023-04-07T06:48:07;100228.97;;;5.89;52.29
61484;BME280;47349;55.640;37.692;2023-04-07T06:50:51;100228.75;;;5.92;51.79
61484;BME280;47349;55.640;37.692;2023-04-07T06:53:34;100225.94;;;5.94;51.29
61484;BME280;47349;55.640;37.692;2023-04-07T06:56:10;100216.44;;;5.91;51.43
61484;BME280;47349;55.640;37.692;2023-04-07T06:58:52;100221.25;;;6.07;51.10
61484;BME280;47349;55.640;37.692;2023-04-07T07:01:25;100210.16;;;6.02;50.95
61484;BME280;47349;55.640;37.692;2023-04-07T07:04:02;100220.72;;;6.13;51.31
61484;BME280;47349;55.640;37.692;2023-04-07T07:06:46;100224.16;;;6.35;51.23
61484;BME280;47349;55.640;37.692;2023-04-07T07:09:18;100231.59;;;6.41;50.54
61484;BME280;47349;55.640;37.692;2023-04-07T07:12:02;100216.63;;;6.50;50.30
61484;BME280;47349;55.640;37.692;2023-04-07T07:14:34;100217.50;;;6.60;50.22
61484;BME280;47349;55.640;37.692;2023-04-07T07:17:18;100219.63;;;6.76;49.64
61484;BME280;47349;55.640;37.692;2023-04-07T07:20:01;100220.47;;;6.86;49.99
61484;BME280;47349;55.640;37.692;2023-04-07T07:22:44;100208.84;;;6.87;49.92
61484;BME280;47349;55.640;37.692;2023-04-07T07:25:16;100221.47;;;7.14;49.65
61484;BME280;47349;55.640;37.692;2023-04-07T07:28:03;100225.28;;;7.11;48.43
61484;BME280;47349;55.640;37.692;2023-04-07T07:30:54;100213.78;;;7.11;48.71
61484;BME280;47349;55.640;37.692;2023-04-07T07:33:50;100213.78;;;7.20;49.44
61484;BME280;47349;55.640;37.692;2023-04-07T07:36:26;100210.78;;;7.43;48.34
61484;BME280;47349;55.640;37.692;2023-04-07T07:39:11;100225.94;;;7.52;48.19
61484;BME280;47349;55.640;37.692;2023-04-07T07:41:52;100220.56;;;7.71;48.68
61484;BME280;47349;55.640;37.692;2023-04-07T07:44:33;100225.59;;;7.84;47.42
61484;BME280;47349;55.640;37.692;2023-04-07T07:47:15;100228.25;;;7.94;46.89
61484;BME280;47349;55.640;37.692;2023-04-07T07:49:47;100225.44;;;7.86;46.39
61484;BME280;47349;55.640;37.692;2023-04-07T07:52:30;100222.63;;;7.87;46.30
61484;BME280;47349;55.640;37.692;2023-04-07T07:55:10;100224.31;;;7.88;45.94
61484;BME280;47349;55.640;37.692;2023-04-07T07:57:39;100220.63;;;7.99;46.48
61484;BME280;47349;55.640;37.692;2023-04-07T08:00:17;100224.50;;;8.14;46.02
61484;BME280;47349;55.640;37.692;2023-04-07T08:03:00;100224.25;;;8.08;45.33
61484;BME280;47349;55.640;37.692;2023-04-07T08:05:36;100220.16;;;8.13;45.75
61484;BME280;47349;55.640;37.692;2023-04-07T08:08:24;100214.50;;;8.16;44.83
61484;BME280;47349;55.640;37.692;2023-04-07T08:11:07;100215.22;;;8.18;44.64
61484;BME280;47349;55.640;37.692;2023-04-07T08:13:50;100210.56;;;8.20;44.48
61484;BME280;47349;55.640;37.692;2023-04-07T08:16:37;100213.47;;;8.37;43.81
61484;BME280;47349;55.640;37.692;2023-04-07T08:19:06;100213.88;;;8.42;43.51
61484;BME280;47349;55.640;37.692;2023-04-07T08:21:48;100210.44;;;8.49;44.00
61484;BME280;47349;55.640;37.692;2023-04-07T08:24:37;100212.66;;;8.54;43.77
61484;BME280;47349;55.640;37.692;2023-04-07T08:27:20;100203.66;;;8.55;43.64
61484;BME280;47349;55.640;37.692;2023-04-07T08:30:12;100203.66;;;8.55;43.08
61484;BME280;47349;55.640;37.692;2023-04-07T08:33:05;100185.16;;;8.44;42.89
61484;BME280;47349;55.640;37.692;2023-04-07T08:35:48;100187.16;;;8.60;42.51
61484;BME280;47349;55.640;37.692;2023-04-07T08:38:18;100193.75;;;8.65;42.26
61484;BME280;47349;55.640;37.692;2023-04-07T08:41:03;100193.84;;;8.73;42.08
61484;BME280;47349;55.640;37.692;2023-04-07T08:43:38;100182.59;;;8.70;41.80
61484;BME280;47349;55.640;37.692;2023-04-07T08:46:21;100187.88;;;8.97;42.31
61484;BME280;47349;55.640;37.692;2023-04-07T08:49:10;100187.88;;;9.15;42.41
61484;BME280;47349;55.640;37.692;2023-04-07T08:51:55;100182.66;;;9.32;41.85
61484;BME280;47349;55.640;37.692;2023-04-07T08:54:47;100188.63;;;9.25;41.13
61484;BME280;47349;55.640;37.692;2023-04-07T08:57:18;100190.06;;;9.38;40.95
61484;BME280;47349;55.640;37.692;2023-04-07T09:00:03;100204.56;;;9.53;40.38
61484;BME280;47349;55.640;37.692;2023-04-07T09:02:49;100171.56;;;9.44;40.07
61484;BME280;47349;55.640;37.692;2023-04-07T09:05:37;100183.19;;;9.61;40.71
61484;BME280;47349;55.640;37.692;2023-04-07T09:08:17;100184.84;;;9.54;39.66
61484;BME280;47349;55.640;37.692;2023-04-07T09:10:57;100177.38;;;9.40;39.81
61484;BME280;47349;55.640;37.692;2023-04-07T09:13:39;100184.50;;;9.57;39.97
61484;BME280;47349;55.640;37.692;2023-04-07T09:16:28;100182.81;;;9.48;38.26
61484;BME280;47349;55.640;37.692;2023-04-07T09:19:04;100184.94;;;9.44;38.70
61484;BME280;47349;55.640;37.692;2023-04-07T09:21:50;100180.88;;;9.58;39.19
61484;BME280;47349;55.640;37.692;2023-04-07T09:24:26;100189.56;;;9.60;38.77
61484;BME280;47349;55.640;37.692;2023-04-07T09:29:45;100178.44;;;9.73;38.95
61484;BME280;47349;55.640;37.692;2023-04-07T09:32:37;100175.53;;;9.66;38.28
61484;BME280;47349;55.640;37.692;2023-04-07T09:35:14;100172.50;;;9.61;38.59
61484;BME280;47349;55.640;37.692;2023-04-07T09:38:07;100179.06;;;9.41;38.20
61484;BME280;47349;55.640;37.692;2023-04-07T09:41:10;100175.91;;;9.19;39.21
61484;BME280;47349;55.640;37.692;2023-04-07T09:43:55;100186.53;;;9.37;38.88
61484;BME280;47349;55.640;37.692;2023-04-07T09:47:10;100186.63;;;9.71;39.05
61484;BME280;47349;55.640;37.692;2023-04-07T09:49:52;100184.22;;;9.60;38.89
61484;BME280;47349;55.640;37.692;2023-04-07T09:52:49;100193.78;;;9.63;36.87
61484;BME280;47349;55.640;37.692;2023-04-07T09:55:35;100184.00;;;9.79;38.09
61484;BME280;47349;55.640;37.692;2023-04-07T09:58:12;100186.25;;;9.92;37.59
61484;BME280;47349;55.640;37.692;2023-04-07T10:00:42;100180.44;;;10.05;37.64
61484;BME280;47349;55.640;37.692;2023-04-07T10:03:11;100185.19;;;10.11;38.08
61484;BME280;47349;55.640;37.692;2023-04-07T10:05:45;100183.22;;;10.21;37.96
61484;BME280;47349;55.640;37.692;2023-04-07T10:08:34;100187.72;;;10.21;37.13
61484;BME280;47349;55.640;37.692;2023-04-07T10:11:18;100177.94;;;10.03;36.89
61484;BME280;47349;55.640;37.692;2023-04-07T10:13:51;100185.31;;;10.10;37.58
61484;BME280;47349;55.640;37.692;2023-04-07T10:16:37;100183.22;;;10.21;37.99
61484;BME280;47349;55.640;37.692;2023-04-07T10:19:20;100182.16;;;10.40;37.05
61484;BME280;47349;55.640;37.692;2023-04-07T10:21:53;100182.03;;;10.16;36.54
61484;BME280;47349;55.640;37.692;2023-04-07T10:27:51;100184.88;;;10.22;35.62
61484;BME280;47349;55.640;37.692;2023-04-07T10:30:30;100181.78;;;10.43;36.59
61484;BME280;47349;55.640;37.692;2023-04-07T10:33:14;100188.34;;;10.41;36.37
61484;BME280;47349;55.640;37.692;2023-04-07T10:36:05;100184.00;;;10.48;36.95
61484;BME280;47349;55.640;37.692;2023-04-07T10:41:56;100186.69;;;10.56;36.09
61484;BME280;47349;55.640;37.692;2023-04-07T10:47:27;100170.75;;;10.46;35.86
61484;BME280;47349;55.640;37.692;2023-04-07T10:50:23;100187.38;;;10.50;36.39
61484;BME280;47349;55.640;37.692;2023-04-07T10:53:16;100176.56;;;10.34;36.27
61484;BME280;47349;55.640;37.692;2023-04-07T10:55:58;100180.81;;;10.52;36.21
61484;BME280;47349;55.640;37.692;2023-04-07T10:59:14;100184.06;;;10.72;36.79
61484;BME280;47349;55.640;37.692;2023-04-07T11:01:47;100185.78;;;10.90;36.32
61484;BME280;47349;55.640;37.692;2023-04-07T11:04:46;100168.16;;;10.71;35.60
61484;BME280;47349;55.640;37.692;2023-04-07T11:07:45;100186.31;;;10.43;35.41
61484;BME280;47349;55.640;37.692;2023-04-07T11:10:33;100182.50;;;10.53;35.92
61484;BME280;47349;55.640;37.692;2023-04-07T11:13:18;100174.09;;;10.40;34.67
61484;BME280;47349;55.640;37.692;2023-04-07T11:15:55;100184.00;;;10.40;35.52
61484;BME280;47349;55.640;37.692;2023-04-07T11:18:38;100180.25;;;10.33;35.53
61484;BME280;47349;55.640;37.692;2023-04-07T11:21:08;100179.63;;;10.47;35.31
61484;BME280;47349;55.640;37.692;2023-04-07T11:23:46;100183.00;;;10.57;35.49
61484;BME280;47349;55.640;37.692;2023-04-07T11:26:39;100189.91;;;10.60;35.43
61484;BME280;47349;55.640;37.692;2023-04-07T11:29:27;100181.34;;;10.56;34.97
61484;BME280;47349;55.640;37.692;2023-04-07T11:32:22;100162.56;;;10.48;34.92
61484;BME280;47349;55.640;37.692;2023-04-07T11:35:10;100175.84;;;10.66;34.34
61484;BME280;47349;55.640;37.692;2023-04-07T11:37:59;100160.72;;;10.40;34.93
61484;BME280;47349;55.640;37.692;2023-04-07T11:40:42;100169.22;;;10.44;35.29
61484;BME280;47349;55.640;37.692;2023-04-07T11:43:46;100164.56;;;10.46;35.00
61484;BME280;47349;55.640;37.692;2023-04-07T11:46:17;100150.66;;;10.42;34.61
61484;BME280;47349;55.640;37.692;2023-04-07T11:49:20;100165.72;;;10.43;35.49
61484;BME280;47349;55.640;37.692;2023-04-07T11:52:05;100179.66;;;10.63;35.03
61484;BME280;47349;55.640;37.692;2023-04-07T11:54:45;100169.44;;;10.59;34.19
61484;BME280;47349;55.640;37.692;2023-04-07T11:57:38;100176.38;;;10.86;34.78
61484;BME280;47349;55.640;37.692;2023-04-07T12:00:20;100175.22;;;11.37;34.96
61484;BME280;47349;55.640;37.692;2023-04-07T12:02:53;100172.66;;;11.68;33.47
61484;BME280;47349;55.640;37.692;2023-04-07T12:05:44;100161.94;;;11.85;33.50
61484;BME280;47349;55.640;37.692;2023-04-07T12:08:19;100173.31;;;12.34;33.15
61484;BME280;47349;55.640;37.692;2023-04-07T12:11:05;100171.06;;;12.46;31.90
61484;BME280;47349;55.640;37.692;2023-04-07T12:13:36;100169.09;;;12.40;31.14
61484;BME280;47349;55.640;37.692;2023-04-07T12:16:22;100162.13;;;12.53;31.41
61484;BME280;47349;55.640;37.692;2023-04-07T12:19:04;100169.31;;;12.61;31.78
61484;BME280;47349;55.640;37.692;2023-04-07T12:21:46;100155.56;;;12.56;31.33
61484;BME280;47349;55.640;37.692;2023-04-07T12:24:28;100160.84;;;12.72;30.87
61484;BME280;47349;55.640;37.692;2023-04-07T12:27:04;100165.28;;;13.11;30.19
61484;BME280;47349;55.640;37.692;2023-04-07T12:29:47;100156.78;;;13.45;30.61
61484;BME280;47349;55.640;37.692;2023-04-07T12:32:21;100163.97;;;14.12;29.70
61484;BME280;47349;55.640;37.692;2023-04-07T12:35:05;100173.31;;;14.31;28.48
61484;BME280;47349;55.640;37.692;2023-04-07T12:37:47;100160.97;;;14.36;28.59
61484;BME280;47349;55.640;37.692;2023-04-07T12:40:20;100171.44;;;13.43;28.86
61484;BME280;47349;55.640;37.692;2023-04-07T12:43:03;100165.75;;;13.15;29.18
61484;BME280;47349;55.640;37.692;2023-04-07T12:45:35;100160.34;;;13.23;29.77
61484;BME280;47349;55.640;37.692;2023-04-07T12:48:17;100163.03;;;13.75;28.98
61484;BME280;47349;55.640;37.692;2023-04-07T12:51:01;100162.56;;;13.72;28.91
61484;BME280;47349;55.640;37.692;2023-04-07T12:53:39;100159.84;;;14.16;29.08
61484;BME280;47349;55.640;37.692;2023-04-07T12:56:21;100146.47;;;14.37;28.46
61484;BME280;47349;55.640;37.692;2023-04-07T12:58:55;100156.88;;;14.55;28.24
61484;BME280;47349;55.640;37.692;2023-04-07T13:01:24;100165.03;;;14.62;28.16
61484;BME280;47349;55.640;37.692;2023-04-07T13:04:04;100158.75;;;14.76;27.85
61484;BME280;47349;55.640;37.692;2023-04-07T13:06:51;100150.09;;;14.15;28.16
61484;BME280;47349;55.640;37.692;2023-04-07T13:09:35;100151.81;;;13.11;28.97
61484;BME280;47349;55.640;37.692;2023-04-07T13:12:25;100164.84;;;12.76;29.15
61484;BME280;47349;55.640;37.692;2023-04-07T13:15:15;100161.00;;;12.48;29.27
61484;BME280;47349;55.640;37.692;2023-04-07T13:17:58;100167.00;;;12.58;29.58
61484;BME280;47349;55.640;37.692;2023-04-07T13:20:28;100155.59;;;12.79;29.51
61484;BME280;47349;55.640;37.692;2023-04-07T13:23:19;100160.25;;;13.08;29.94
61484;BME280;47349;55.640;37.692;2023-04-07T13:26:02;100167.28;;;13.55;29.39
61484;BME280;47349;55.640;37.692;2023-04-07T13:28:49;100155.97;;;14.04;28.96
61484;BME280;47349;55.640;37.692;2023-04-07T13:31:32;100157.91;;;14.25;28.72
61484;BME280;47349;55.640;37.692;2023-04-07T13:34:26;100143.22;;;14.27;28.15
61484;BME280;47349;55.640;37.692;2023-04-07T13:36:56;100152.31;;;14.56;28.25
61484;BME280;47349;55.640;37.692;2023-04-07T13:39:37;100153.16;;;14.42;28.39
61484;BME280;47349;55.640;37.692;2023-04-07T13:42:19;100162.50;;;14.75;27.43
61484;BME280;47349;55.640;37.692;2023-04-07T13:45:05;100144.88;;;14.79;27.33
61484;BME280;47349;55.640;37.692;2023-04-07T13:47:52;100152.81;;;14.00;27.76
61484;BME280;47349;55.640;37.692;2023-04-07T13:50:42;100159.22;;;13.70;27.96
61484;BME280;47349;55.640;37.692;2023-04-07T13:53:32;100159.16;;;13.17;28.21
61484;BME280;47349;55.640;37.692;2023-04-07T13:56:43;100157.03;;;13.12;29.13
61484;BME280;47349;55.640;37.692;2023-04-07T13:59:31;100161.91;;;13.09;29.36
61484;BME280;47349;55.640;37.692;2023-04-07T14:02:17;100152.25;;;13.23;29.85
61484;BME280;47349;55.640;37.692;2023-04-07T14:05:00;100153.84;;;13.70;29.26
61484;BME280;47349;55.640;37.692;2023-04-07T14:07:45;100148.66;;;13.83;28.89
61484;BME280;47349;55.640;37.692;2023-04-07T14:10:42;100143.25;;;13.83;28.91
61484;BME280;47349;55.640;37.692;2023-04-07T14:13:25;100155.88;;;13.82;28.99
61484;BME280;47349;55.640;37.692;2023-04-07T14:16:10;100155.88;;;14.12;28.50
61484;BME280;47349;55.640;37.692;2023-04-07T14:18:51;100154.47;;;13.86;28.76
61484;BME280;47349;55.640;37.692;2023-04-07T14:21:22;100163.78;;;13.99;28.61
61484;BME280;47349;55.640;37.692;2023-04-07T14:24:07;100149.94;;;13.87;28.91
61484;BME280;47349;55.640;37.692;2023-04-07T14:26:54;100165.00;;;13.44;28.78
61484;BME280;47349;55.640;37.692;2023-04-07T14:29:49;100158.16;;;13.41;29.20
61484;BME280;47349;55.640;37.692;2023-04-07T14:32:37;100164.03;;;13.45;29.47
61484;BME280;47349;55.640;37.692;2023-04-07T14:35:27;100169.16;;;13.69;29.24
61484;BME280;47349;55.640;37.692;2023-04-07T14:38:05;100157.44;;;13.62;29.16
61484;BME280;47349;55.640;37.692;2023-04-07T14:40:49;100160.41;;;13.52;29.13
61484;BME280;47349;55.640;37.692;2023-04-07T14:43:31;100160.09;;;13.47;29.28
61484;BME280;47349;55.640;37.692;2023-04-07T14:46:16;100162.81;;;13.62;29.30